<?xml version="1.0" encoding="utf-8"?>
<gpx xmlns:xsi="http://www.w3.org/2001/XMLSchema-instance" xmlns:xsd="http://www.w3.org/2001/XMLSchema" version="1.1" creator="Shapelink.com" xmlns="http://www.topografix.com/GPX/1/1" xmlns:gpxtpx="http://www.garmin.com/xmlschemas/TrackPointExtension/v1">
  <metadata>
    <name>Övrigt 1.01 km, 2020-06-11</name>
    <desc></desc>
    <author><name>Marian Moron</name></author> 
    <time>2020-06-11T17:49:02Z</time>
  </metadata>
  <trk>
    <name>Övrigt 1.01 km, 2020-06-11</name>
    <trkseg>
      <trkpt lat="51.229816820707" lon="4.45702754817">
        <ele>0</ele>
        <time>2020-06-11T17:49:02Z</time>
      </trkpt>
      <trkpt lat="51.230146899929" lon="4.456346770252">
        <ele>0.8</ele>
        <time>2020-06-11T17:50:04Z</time>
      </trkpt>
      <trkpt lat="51.230600193081" lon="4.456345093872">
        <ele>0</ele>
        <time>2020-06-11T17:50:47Z</time>
      </trkpt>
      <trkpt lat="51.230954412175" lon="4.455957514816">
        <ele>0</ele>
        <time>2020-06-11T17:51:26Z</time>
      </trkpt>
      <trkpt lat="51.231040913383" lon="4.455971344951">
        <ele>0</ele>
        <time>2020-06-11T17:51:34Z</time>
      </trkpt>
      <trkpt lat="51.231099335226" lon="4.455979726851">
        <ele>0</ele>
        <time>2020-06-11T17:51:40Z</time>
      </trkpt>
      <trkpt lat="51.231132359912" lon="4.455294506526">
        <ele>0</ele>
        <time>2020-06-11T17:52:18Z</time>
      </trkpt>
      <trkpt lat="51.231032950578" lon="4.454582045026">
        <ele>0</ele>
        <time>2020-06-11T17:52:55Z</time>
      </trkpt>
      <trkpt lat="51.230946365551" lon="4.454160267818">
        <ele>0</ele>
        <time>2020-06-11T17:53:22Z</time>
      </trkpt>
      <trkpt lat="51.230880567636" lon="4.453434730554">
        <ele>0</ele>
        <time>2020-06-11T17:53:58Z</time>
      </trkpt>
      <trkpt lat="51.230747965978" lon="4.452753449722">
        <ele>0</ele>
        <time>2020-06-11T17:54:37Z</time>
      </trkpt>
      <trkpt lat="51.230695998198" lon="4.452404595044">
        <ele>0</ele>
        <time>2020-06-11T17:55:00Z</time>
      </trkpt>
      <trkpt lat="51.230692393981" lon="4.452158837736">
        <ele>11.4</ele>
        <time>2020-06-11T17:55:27Z</time>
      </trkpt>
      <trkpt lat="51.230655765078" lon="4.451738988365">
        <ele>21.6</ele>
        <time>2020-06-11T17:55:53Z</time>
      </trkpt>
      <trkpt lat="51.230494916417" lon="4.451164828215">
        <ele>3.6</ele>
        <time>2020-06-11T17:56:26Z</time>
      </trkpt>
      <trkpt lat="51.230220409192" lon="4.450916640156">
        <ele>0</ele>
        <time>2020-06-11T17:57:54Z</time>
      </trkpt>
      <trkpt lat="51.230091747027" lon="4.450968105022">
        <ele>0</ele>
        <time>2020-06-11T17:58:09Z</time>
      </trkpt>
      <trkpt lat="51.23005629159" lon="4.450990652333">
        <ele>0</ele>
        <time>2020-06-11T17:58:12Z</time>
      </trkpt>
      <trkpt lat="51.229667119973" lon="4.450837263563">
        <ele>0</ele>
        <time>2020-06-11T17:58:58Z</time>
      </trkpt>
      <trkpt lat="51.229654966218" lon="4.450812201682">
        <ele>0</ele>
        <time>2020-06-11T17:59:00Z</time>
      </trkpt>
      <trkpt lat="51.229593694529" lon="4.450414312889">
        <ele>0</ele>
        <time>2020-06-11T17:59:31Z</time>
      </trkpt>
      <trkpt lat="51.229532590478" lon="4.450269808933">
        <ele>1.6</ele>
        <time>2020-06-11T17:59:40Z</time>
      </trkpt>
      <trkpt lat="51.229517167782" lon="4.45019797605">
        <ele>0.8</ele>
        <time>2020-06-11T17:59:45Z</time>
      </trkpt>
      <trkpt lat="51.229520771999" lon="4.44994148991">
        <ele>6.6</ele>
        <time>2020-06-11T18:00:02Z</time>
      </trkpt>
      <trkpt lat="51.22951482085" lon="4.449804781121">
        <ele>8.8</ele>
        <time>2020-06-11T18:00:10Z</time>
      </trkpt>
      <trkpt lat="51.229352128171" lon="4.449108412869">
        <ele>14.6</ele>
        <time>2020-06-11T18:00:57Z</time>
      </trkpt>
      <trkpt lat="51.2292927005" lon="4.448975811211">
        <ele>6.8</ele>
        <time>2020-06-11T18:01:08Z</time>
      </trkpt>
      <trkpt lat="51.229204942007" lon="4.448826278115">
        <ele>6</ele>
        <time>2020-06-11T18:01:21Z</time>
      </trkpt>
      <trkpt lat="51.229156997539" lon="4.448687054756">
        <ele>6.8</ele>
        <time>2020-06-11T18:01:32Z</time>
      </trkpt>
      <trkpt lat="51.22894568984" lon="4.448673895173">
        <ele>1.8</ele>
        <time>2020-06-11T18:02:07Z</time>
      </trkpt>
      <trkpt lat="51.22872943682" lon="4.448935913367">
        <ele>0</ele>
        <time>2020-06-11T18:02:45Z</time>
      </trkpt>
      <trkpt lat="51.228647210381" lon="4.449074549993">
        <ele>0</ele>
        <time>2020-06-11T18:02:59Z</time>
      </trkpt>
      <trkpt lat="51.228603540682" lon="4.449150154731">
        <ele>0</ele>
        <time>2020-06-11T18:03:07Z</time>
      </trkpt>
      <trkpt lat="51.228456689794" lon="4.449254509386">
        <ele>0</ele>
        <time>2020-06-11T18:04:46Z</time>
      </trkpt>
      <trkpt lat="51.228436573234" lon="4.449227687306">
        <ele>0</ele>
        <time>2020-06-11T18:05:44Z</time>
      </trkpt>
      <trkpt lat="51.228544615925" lon="4.44899349702">
        <ele>0</ele>
        <time>2020-06-11T18:06:24Z</time>
      </trkpt>
      <trkpt lat="51.228806717938" lon="4.448668363119">
        <ele>0</ele>
        <time>2020-06-11T18:07:04Z</time>
      </trkpt>
      <trkpt lat="51.228817865865" lon="4.44864900093">
        <ele>0</ele>
        <time>2020-06-11T18:07:05Z</time>
      </trkpt>
      <trkpt lat="51.228830354896" lon="4.448632572406">
        <ele>0</ele>
        <time>2020-06-11T18:07:06Z</time>
      </trkpt>
    </trkseg>
  </trk>
</gpx>